Terminal Aerodrome Forecast
Issued by NWS Wichita, KS

Home | Current Version | Previous Version | Graphics & Text | Print | Product List | Glossary On
Versions: 1 2 3 4 5 6 7 8 9 10 11 12 13 14 15 16 17
000
FTUS43 KICT 220903 AAC
TAFICT
TAF AMD
KICT 220903Z 2209/2306 35010KT P6SM -SHRA SCT009 OVC020
     FM221400 36015G21KT P6SM OVC025
     FM230200 02010KT P6SM OVC050
     FM230500 36007KT P6SM BKN100=

USA.gov is the U.S. government's official web portal to all federal, state and local government web resources and services.